Housho Maru — JD2281 — position and weather

sailwx.info

Track history (hours):
 
Tides and Currents Weather Stations Pressure Air Temp Water Temp Dewpoint Dewpoint Depression Visibility Wind Speed Wind Dir Waves Ship Positions

Housho Maru

Last reported at 2017-Oct-17 21:23 UTC. Time now 2017-Oct-18 16:30 UTC.
Position N 34°33' E 134°46'.

Length 165 m; draft 6.2 m.

Type: Cargo ship. MMSI: 431200703.

Date/timePositionNaut miles runAvg speedWind from/ knotsBaromVisibWave heightAir tempDewpointWater temp
2017-Oct-17 21:23N 34°33' E 134°46'922.7
2017-Oct-17 21:00N 34°37' E 134°56'917.5
2017-Oct-17 20:30N 34°33' E 135°05'1020.5
2017-Oct-17 20:00N 34°23' E 135°02'1019.6
2017-Oct-17 19:31N 34°14' E 134°60'1020.0
2017-Oct-17 19:01N 34°04' E 135°01'221 7.4
2017-Oct-16 13:15N 34°51' E 139°22'417.3
2017-Oct-16 13:00N 34°54' E 139°26'918.5
2017-Oct-16 12:30N 35°00' E 139°34'1020.5
2017-Oct-16 12:00N 35°07' E 139°43'815.9
2017-Oct-16 11:30N 35°15' E 139°46'713.2
2017-Oct-16 11:00N 35°21' E 139°42'4 7.2
2017-Oct-16 10:28N 35°23' E 139°39'0 0.0
2017-Oct-16 09:58N 35°23' E 139°39'0 0.0
2017-Oct-16 09:28N 35°23' E 139°39'0 0.0
2017-Oct-16 08:58N 35°23' E 139°39'0 0.0
2017-Oct-16 08:28N 35°23' E 139°39'0 0.0
2017-Oct-16 07:58N 35°23' E 139°39'0 0.0
2017-Oct-16 07:28N 35°23' E 139°39'0 0.0
2017-Oct-16 06:58N 35°23' E 139°39'0 0.0
2017-Oct-16 06:28N 35°23' E 139°39'0 0.0
2017-Oct-16 05:58N 35°23' E 139°39'0 0.0
2017-Oct-16 05:28N 35°23' E 139°39'1 1.4
2017-Oct-16 05:00N 35°24' E 139°40'815.9
2017-Oct-16 04:31N 35°27' E 139°48'1019.7
2017-Oct-16 04:00N 35°33' E 139°58'5 0.6
2017-Oct-15 20:07N 35°35' E 140°04'215.0
2017-Oct-15 20:00N 35°34' E 140°02'816.9
2017-Oct-15 19:30N 35°30' E 139°53'815.1
2017-Oct-15 19:01N 35°24' E 139°46'612.1
2017-Oct-15 18:30N 35°19' E 139°44'611.7
2017-Oct-15 18:00N 35°13' E 139°47'815.7
2017-Oct-15 17:30N 35°06' E 139°44'917.1
2017-Oct-15 17:00N 35°00' E 139°36'917.5
2017-Oct-15 16:30N 34°55' E 139°27'230 7.6
2017-Oct-14 10:13N 33°54' E 134°59'417.8
2017-Oct-14 10:00N 33°58' E 134°59'917.6
2017-Oct-14 09:30N 34°06' E 134°59'917.3
2017-Oct-14 09:00N 34°15' E 134°59'816.2
2017-Oct-14 08:30N 34°23' E 135°00'816.8
2017-Oct-14 08:00N 34°31' E 135°02'612.4
2017-Oct-14 07:30N 34°37' E 134°60'  
2017-Oct-11 20:55N 34°31' E 134°40'716.6
2017-Oct-11 20:29N 34°33' E 134°48'715.5
2017-Oct-11 20:00N 34°36' E 134°56'713.4
2017-Oct-11 19:30N 34°36' E 135°04'816.3
2017-Oct-11 19:00N 34°28' E 135°04'1019.7
2017-Oct-11 18:29N 34°18' E 134°60'919.1
2017-Oct-11 18:01N 34°09' E 135°01'1020.0
2017-Oct-11 17:30N 33°59' E 135°01'213 7.3
2017-Oct-10 12:22N 34°44' E 139°13'817.4
2017-Oct-10 11:52N 34°51' E 139°20'717.8
2017-Oct-10 11:29N 34°55' E 139°26'818.0
2017-Oct-10 11:01N 35°01' E 139°34'917.5
2017-Oct-10 10:31N 35°06' E 139°42'815.6
2017-Oct-10 10:00N 35°14' E 139°46'612.6
2017-Oct-10 09:30N 35°19' E 139°43'510.2
2017-Oct-10 08:59N 35°23' E 139°39'0 0.1
2017-Oct-10 08:07N 35°23' E 139°39'0 0.0
2017-Oct-10 07:49N 35°23' E 139°39'0 0.0
2017-Oct-10 07:28N 35°23' E 139°39'0 0.0
2017-Oct-10 06:58N 35°23' E 139°39'0 0.0
2017-Oct-10 06:28N 35°23' E 139°39'0 0.0
2017-Oct-10 05:58N 35°23' E 139°39'0 0.0
2017-Oct-10 05:28N 35°23' E 139°39'0 0.0
2017-Oct-10 04:58N 35°23' E 139°39'0 0.0
2017-Oct-10 04:26N 35°23' E 139°39'3 7.9
2017-Oct-10 04:01N 35°24' E 139°43'1019.8
2017-Oct-10 03:30N 35°30' E 139°53'1018.0
2017-Oct-10 02:57N 35°35' E 140°03'13 1.7
2017-Oct-09 19:16N 35°27' E 139°50'415.1
2017-Oct-09 19:01N 35°25' E 139°47'613.0
2017-Oct-09 18:31N 35°18' E 139°44'612.9
2017-Oct-09 18:01N 35°12' E 139°47'816.1
2017-Oct-09 17:31N 35°05' E 139°43'917.8
2017-Oct-09 17:00N 35°00' E 139°34'918.3
2017-Oct-09 16:30N 34°56' E 139°24'226 7.4
2017-Oct-08 10:02N 33°53' E 135°00'117.1
2017-Oct-08 09:57N 33°54' E 134°60'816.8
2017-Oct-08 09:30N 34°02' E 134°58'917.7
2017-Oct-08 09:00N 34°11' E 134°58'918.5
2017-Oct-08 08:30N 34°20' E 134°59'917.3
2017-Oct-08 08:00N 34°28' E 135°01'816.2
2017-Oct-08 07:30N 34°37' E 135°01'  
Track history (hours):
 
Tides and Currents Weather Stations Pressure Air Temp Water Temp Dewpoint Dewpoint Depression Visibility Wind Speed Wind Dir Waves Ship Positions

Housho Maru

Last reported at 2017-Oct-17 21:23 UTC. Time now 2017-Oct-18 16:30 UTC.
Position N 34°33' E 134°46'.

Length 165 m; draft 6.2 m.

Type: Cargo ship. MMSI: 431200703.

Date/timePositionNaut miles runAvg speedWind from/ knotsBaromVisibWave heightAir tempDewpointWater temp
2017-Oct-17 21:23N 34°33' E 134°46'922.7
2017-Oct-17 21:00N 34°37' E 134°56'917.5
2017-Oct-17 20:30N 34°33' E 135°05'1020.5
2017-Oct-17 20:00N 34°23' E 135°02'1019.6
2017-Oct-17 19:31N 34°14' E 134°60'1020.0
2017-Oct-17 19:01N 34°04' E 135°01'221 7.4
2017-Oct-16 13:15N 34°51' E 139°22'417.3
2017-Oct-16 13:00N 34°54' E 139°26'918.5
2017-Oct-16 12:30N 35°00' E 139°34'1020.5
2017-Oct-16 12:00N 35°07' E 139°43'815.9
2017-Oct-16 11:30N 35°15' E 139°46'713.2
2017-Oct-16 11:00N 35°21' E 139°42'4 7.2
2017-Oct-16 10:28N 35°23' E 139°39'0 0.0
2017-Oct-16 09:58N 35°23' E 139°39'0 0.0
2017-Oct-16 09:28N 35°23' E 139°39'0 0.0
2017-Oct-16 08:58N 35°23' E 139°39'0 0.0
2017-Oct-16 08:28N 35°23' E 139°39'0 0.0
2017-Oct-16 07:58N 35°23' E 139°39'0 0.0
2017-Oct-16 07:28N 35°23' E 139°39'0 0.0
2017-Oct-16 06:58N 35°23' E 139°39'0 0.0
2017-Oct-16 06:28N 35°23' E 139°39'0 0.0
2017-Oct-16 05:58N 35°23' E 139°39'0 0.0
2017-Oct-16 05:28N 35°23' E 139°39'1 1.4
2017-Oct-16 05:00N 35°24' E 139°40'815.9
2017-Oct-16 04:31N 35°27' E 139°48'1019.7
2017-Oct-16 04:00N 35°33' E 139°58'5 0.6
2017-Oct-15 20:07N 35°35' E 140°04'215.0
2017-Oct-15 20:00N 35°34' E 140°02'816.9
2017-Oct-15 19:30N 35°30' E 139°53'815.1
2017-Oct-15 19:01N 35°24' E 139°46'612.1
2017-Oct-15 18:30N 35°19' E 139°44'611.7
2017-Oct-15 18:00N 35°13' E 139°47'815.7
2017-Oct-15 17:30N 35°06' E 139°44'917.1
2017-Oct-15 17:00N 35°00' E 139°36'917.5
2017-Oct-15 16:30N 34°55' E 139°27'230 7.6
2017-Oct-14 10:13N 33°54' E 134°59'417.8
2017-Oct-14 10:00N 33°58' E 134°59'917.6
2017-Oct-14 09:30N 34°06' E 134°59'917.3
2017-Oct-14 09:00N 34°15' E 134°59'816.2
2017-Oct-14 08:30N 34°23' E 135°00'816.8
2017-Oct-14 08:00N 34°31' E 135°02'612.4
2017-Oct-14 07:30N 34°37' E 134°60'  
2017-Oct-11 20:55N 34°31' E 134°40'716.6
2017-Oct-11 20:29N 34°33' E 134°48'715.5
2017-Oct-11 20:00N 34°36' E 134°56'713.4
2017-Oct-11 19:30N 34°36' E 135°04'816.3
2017-Oct-11 19:00N 34°28' E 135°04'1019.7
2017-Oct-11 18:29N 34°18' E 134°60'919.1
2017-Oct-11 18:01N 34°09' E 135°01'1020.0
2017-Oct-11 17:30N 33°59' E 135°01'213 7.3
2017-Oct-10 12:22N 34°44' E 139°13'817.4
2017-Oct-10 11:52N 34°51' E 139°20'717.8
2017-Oct-10 11:29N 34°55' E 139°26'818.0
2017-Oct-10 11:01N 35°01' E 139°34'917.5
2017-Oct-10 10:31N 35°06' E 139°42'815.6
2017-Oct-10 10:00N 35°14' E 139°46'612.6
2017-Oct-10 09:30N 35°19' E 139°43'510.2
2017-Oct-10 08:59N 35°23' E 139°39'0 0.1
2017-Oct-10 08:07N 35°23' E 139°39'0 0.0
2017-Oct-10 07:49N 35°23' E 139°39'0 0.0
2017-Oct-10 07:28N 35°23' E 139°39'0 0.0
2017-Oct-10 06:58N 35°23' E 139°39'0 0.0
2017-Oct-10 06:28N 35°23' E 139°39'0 0.0
2017-Oct-10 05:58N 35°23' E 139°39'0 0.0
2017-Oct-10 05:28N 35°23' E 139°39'0 0.0
2017-Oct-10 04:58N 35°23' E 139°39'0 0.0
2017-Oct-10 04:26N 35°23' E 139°39'3 7.9
2017-Oct-10 04:01N 35°24' E 139°43'1019.8
2017-Oct-10 03:30N 35°30' E 139°53'1018.0
2017-Oct-10 02:57N 35°35' E 140°03'13 1.7
2017-Oct-09 19:16N 35°27' E 139°50'415.1
2017-Oct-09 19:01N 35°25' E 139°47'613.0
2017-Oct-09 18:31N 35°18' E 139°44'612.9
2017-Oct-09 18:01N 35°12' E 139°47'816.1
2017-Oct-09 17:31N 35°05' E 139°43'917.8
2017-Oct-09 17:00N 35°00' E 139°34'918.3
2017-Oct-09 16:30N 34°56' E 139°24'226 7.4
2017-Oct-08 10:02N 33°53' E 135°00'117.1
2017-Oct-08 09:57N 33°54' E 134°60'816.8
2017-Oct-08 09:30N 34°02' E 134°58'917.7
2017-Oct-08 09:00N 34°11' E 134°58'918.5
2017-Oct-08 08:30N 34°20' E 134°59'917.3
2017-Oct-08 08:00N 34°28' E 135°01'816.2
2017-Oct-08 07:30N 34°37' E 135°01'  

Dump ship's entire track history